Time;durP1;ratioP1;P1;durP2;ratioP2;P2;SDS_P1;SDS_P2;PMS_P1;PMS_P2;Temp;Humidity;BMP_temperature;BMP_pressure;BME280_temperature;BME280_humidity;BME280_pressure;Samples;Min_cycle;Max_cycle;Signal;HPM_P1;HPM_P2
2022/06/26 00:00:46;;;;;;;;;30.33;30.33;26.80;59.10;;;;;;5096414;28;8756;-78
2022/06/26 00:03:12;;;;;;;;;33.00;32.00;26.80;58.70;;;;;;5096330;28;8760;-79
2022/06/26 00:05:38;;;;;;;;;31.33;30.33;26.90;58.60;;;;;;5096296;28;8808;-79
2022/06/26 00:08:05;;;;;;;;;30.67;30.67;26.80;58.40;;;;;;5096254;28;8799;-78
2022/06/26 00:10:31;;;;;;;;;26.67;26.67;26.90;58.40;;;;;;5096465;28;8771;-79
2022/06/26 00:12:57;;;;;;;;;29.00;29.00;26.80;58.60;;;;;;5095579;28;8818;-78
2022/06/26 00:15:23;;;;;;;;;31.33;31.33;26.90;59.30;;;;;;5096100;28;8856;-78
2022/06/26 00:17:48;;;;;;;;;30.00;30.00;26.90;58.20;;;;;;5095741;28;8760;-78
2022/06/26 00:20:14;;;;;;;;;26.00;26.00;26.80;58.30;;;;;;5095986;28;8833;-79
2022/06/26 00:22:41;;;;;;;;;32.67;31.67;26.90;58.20;;;;;;5095777;28;8789;-78
2022/06/26 00:25:08;;;;;;;;;26.00;26.00;26.90;58.20;;;;;;5095894;28;8775;-79
2022/06/26 00:27:35;;;;;;;;;32.33;31.33;26.90;58.10;;;;;;5095573;28;9387;-79
2022/06/26 00:30:01;;;;;;;;;32.67;31.67;26.80;58.50;;;;;;5096105;28;8764;-79
2022/06/26 00:32:26;;;;;;;;;32.33;31.67;26.80;58.60;;;;;;5095714;28;8902;-78
2022/06/26 00:34:52;;;;;;;;;29.33;29.33;26.80;58.10;;;;;;5077789;28;8920;-79
2022/06/26 00:37:18;;;;;;;;;34.33;33.33;26.70;58.40;;;;;;5095634;28;8834;-79
2022/06/26 00:39:44;;;;;;;;;34.67;33.33;26.60;58.70;;;;;;5095707;28;8760;-79
2022/06/26 00:42:10;;;;;;;;;28.67;28.67;26.60;58.80;;;;;;5095631;28;9424;-78
2022/06/26 00:44:35;;;;;;;;;33.00;32.00;26.60;59.00;;;;;;5095489;28;8787;-78
2022/06/26 00:47:01;;;;;;;;;34.67;33.33;26.70;58.90;;;;;;5095550;28;8781;-79
2022/06/26 00:49:28;;;;;;;;;34.67;32.67;26.70;58.70;;;;;;5095952;28;8751;-79
2022/06/26 00:51:55;;;;;;;;;31.67;31.00;26.70;58.60;;;;;;5095428;28;8878;-79
2022/06/26 00:54:23;;;;;;;;;29.67;29.67;26.70;58.80;;;;;;5095304;28;8839;-79
2022/06/26 00:56:50;;;;;;;;;27.33;27.33;26.70;58.90;;;;;;5095362;28;8740;-79
2022/06/26 00:59:16;;;;;;;;;36.33;34.00;26.60;59.10;;;;;;5095316;28;8768;-79
2022/06/26 01:01:42;;;;;;;;;31.33;31.33;26.60;59.10;;;;;;5095059;28;8776;-80
2022/06/26 01:04:08;;;;;;;;;33.67;32.67;26.50;59.30;;;;;;5095195;28;8876;-80
2022/06/26 01:06:35;;;;;;;;;34.67;33.00;26.50;59.40;;;;;;5095084;28;8767;-79
2022/06/26 01:09:01;;;;;;;;;38.00;34.00;26.50;59.20;;;;;;5095445;28;8792;-81
2022/06/26 01:11:28;;;;;;;;;34.33;33.00;26.60;58.90;;;;;;5095245;28;8774;-80
2022/06/26 01:13:56;;;;;;;;;33.67;32.33;26.60;59.00;;;;;;5077115;28;8771;-79
2022/06/26 01:16:23;;;;;;;;;31.33;30.67;26.50;58.90;;;;;;5094990;28;8783;-79
2022/06/26 01:18:51;;;;;;;;;32.67;31.67;26.60;58.50;;;;;;5077054;28;8900;-80
2022/06/26 01:21:22;;;;;;;;;33.00;31.67;26.60;58.40;;;;;;5094908;28;8749;-80
2022/06/26 01:23:49;;;;;;;;;34.67;33.33;26.60;58.30;;;;;;5094965;28;8759;-80
2022/06/26 01:26:15;;;;;;;;;34.33;32.33;26.50;58.50;;;;;;5094904;28;8830;-81
2022/06/26 01:28:41;;;;;;;;;27.67;27.67;26.40;58.80;;;;;;5094850;28;8772;-79
2022/06/26 01:31:07;;;;;;;;;33.33;32.33;26.40;58.70;;;;;;5094762;28;8787;-80
2022/06/26 01:33:34;;;;;;;;;39.00;34.33;26.40;58.80;;;;;;5094980;28;8774;-80
2022/06/26 01:36:00;;;;;;;;;32.00;31.33;26.40;58.60;;;;;;5094795;28;8791;-80
2022/06/26 01:38:26;;;;;;;;;34.00;33.00;26.40;58.30;;;;;;5094847;28;8845;-80
2022/06/26 01:40:54;;;;;;;;;29.33;29.33;26.30;58.30;;;;;;5094503;28;8871;-80
2022/06/26 01:43:23;;;;;;;;;33.33;32.33;26.40;58.20;;;;;;5094665;28;8752;-80
2022/06/26 01:45:51;;;;;;;;;29.00;29.00;26.30;58.20;;;;;;5094608;28;8779;-82
2022/06/26 01:48:19;;;;;;;;;32.67;31.67;26.40;58.10;;;;;;5094741;28;8767;-81
2022/06/26 01:50:45;;;;;;;;;33.00;32.00;26.30;57.90;;;;;;5094798;28;8768;-82
2022/06/26 01:53:12;;;;;;;;;29.00;29.00;26.30;57.90;;;;;;5094532;28;8775;-81
2022/06/26 01:55:38;;;;;;;;;29.00;29.00;26.30;58.00;;;;;;5094660;28;8810;-82
2022/06/26 01:58:04;;;;;;;;;25.33;25.33;26.30;58.10;;;;;;5094479;28;8780;-80
2022/06/26 02:00:32;;;;;;;;;29.67;29.67;26.30;58.10;;;;;;5094500;28;8790;-81
2022/06/26 02:02:59;;;;;;;;;32.00;31.33;26.30;57.90;;;;;;5094348;28;8848;-80
2022/06/26 02:05:24;;;;;;;;;28.67;28.67;26.20;58.00;;;;;;5094319;28;8791;-80
2022/06/26 02:07:51;;;;;;;;;34.33;33.33;26.20;58.30;;;;;;5094367;28;8800;-80
2022/06/26 02:15:51;;;;;;;;;31.67;31.33;26.20;58.30;;;;;;5098520;28;8783;-80
2022/06/26 02:18:17;;;;;;;;;36.00;34.00;26.10;58.60;;;;;;5098290;28;8811;-81
2022/06/26 02:20:43;;;;;;;;;38.33;34.33;26.10;58.90;;;;;;5098421;28;8863;-80
2022/06/26 02:23:10;;;;;;;;;32.67;32.00;26.10;59.00;;;;;;5098311;28;8792;-81
2022/06/26 02:25:36;;;;;;;;;38.67;35.67;26.20;58.60;;;;;;5087164;28;8790;-80
2022/06/26 02:28:02;;;;;;;;;32.33;31.33;26.20;58.50;;;;;;5096148;28;8853;-81
2022/06/26 02:30:28;;;;;;;;;32.00;31.00;26.20;58.40;;;;;;5098234;28;8791;-80
2022/06/26 02:32:56;;;;;;;;;34.00;33.00;26.20;58.50;;;;;;5098490;28;8764;-81
2022/06/26 02:35:23;;;;;;;;;34.00;33.00;26.10;58.50;;;;;;5098453;28;8809;-81
2022/06/26 02:37:49;;;;;;;;;32.67;30.67;26.10;58.50;;;;;;5098110;28;8807;-80
2022/06/26 02:40:15;;;;;;;;;33.67;32.67;26.20;58.20;;;;;;5098112;28;8744;-82
2022/06/26 02:42:41;;;;;;;;;37.00;34.33;26.20;58.10;;;;;;5098014;28;8756;-81
2022/06/26 02:45:07;;;;;;;;;30.00;30.00;26.10;58.40;;;;;;5098225;28;8878;-81
2022/06/26 02:47:33;;;;;;;;;36.00;34.00;26.10;58.70;;;;;;5097955;28;8775;-80
2022/06/26 02:49:59;;;;;;;;;34.33;33.00;26.00;58.50;;;;;;5098066;28;8767;-81
2022/06/26 02:52:25;;;;;;;;;32.67;31.67;26.00;58.40;;;;;;5097803;28;8767;-81
2022/06/26 02:54:51;;;;;;;;;32.67;32.00;26.00;58.60;;;;;;5097642;28;8852;-81
2022/06/26 02:57:17;;;;;;;;;35.33;33.67;25.70;59.70;;;;;;5097722;28;8756;-81
2022/06/26 02:59:43;;;;;;;;;29.67;29.67;25.70;59.70;;;;;;5097657;28;8790;-80
2022/06/26 03:02:08;;;;;;;;;39.00;34.33;25.70;59.80;;;;;;5097641;28;8772;-79
2022/06/26 03:04:34;;;;;;;;;33.00;32.00;25.80;59.20;;;;;;5097749;28;8763;-80
2022/06/26 03:07:00;;;;;;;;;28.33;28.33;25.90;58.90;;;;;;5097488;28;8752;-80
2022/06/26 03:09:26;;;;;;;;;32.67;31.67;26.00;58.50;;;;;;5097509;28;8810;-81
2022/06/26 03:11:51;;;;;;;;;35.67;34.00;25.80;58.40;;;;;;5079503;28;8861;-80
2022/06/26 03:14:17;;;;;;;;;34.00;33.00;25.80;58.80;;;;;;5097242;28;8764;-80
2022/06/26 03:16:43;;;;;;;;;35.67;34.00;25.90;58.60;;;;;;5097248;28;8864;-81
2022/06/26 03:19:09;;;;;;;;;30.33;30.33;25.90;58.80;;;;;;5096971;28;8831;-81
2022/06/26 03:21:35;;;;;;;;;31.33;31.33;26.00;58.70;;;;;;5097253;28;8772;-80
2022/06/26 03:24:01;;;;;;;;;38.00;35.00;26.00;57.70;;;;;;5097071;28;8787;-81
2022/06/26 03:26:27;;;;;;;;;34.67;32.67;26.00;58.10;;;;;;5079221;28;8835;-81
2022/06/26 03:28:53;;;;;;;;;31.00;30.33;26.00;58.30;;;;;;5097156;28;8848;-82
2022/06/26 03:31:18;;;;;;;;;33.00;32.33;26.00;57.80;;;;;;5097284;28;8804;-82
2022/06/26 03:33:44;;;;;;;;;34.67;33.33;26.00;57.50;;;;;;5096986;28;9425;-83
2022/06/26 03:36:10;;;;;;;;;30.33;30.33;25.90;57.60;;;;;;5097046;28;8788;-80
2022/06/26 03:38:37;;;;;;;;;35.33;33.67;25.90;57.40;;;;;;5093152;28;8864;-81
2022/06/26 03:41:03;;;;;;;;;36.00;33.67;26.00;57.60;;;;;;5085835;28;8790;-82
2022/06/26 03:43:28;;;;;;;;;38.00;34.67;25.90;57.90;;;;;;5076541;28;9549;-83
2022/06/26 03:45:54;;;;;;;;;34.00;33.00;25.90;58.20;;;;;;5076645;28;8773;-82
2022/06/26 03:48:20;;;;;;;;;32.00;31.33;25.90;57.80;;;;;;5076656;28;8773;-82
2022/06/26 03:50:46;;;;;;;;;35.33;33.33;26.00;57.80;;;;;;5076307;28;8769;-80
2022/06/26 03:53:12;;;;;;;;;39.67;36.00;26.00;58.00;;;;;;5076409;28;8758;-81
2022/06/26 03:55:37;;;;;;;;;37.33;34.00;26.00;58.10;;;;;;5058640;28;8809;-80
2022/06/26 03:58:03;;;;;;;;;39.33;36.00;26.00;57.90;;;;;;5076267;28;8770;-81
2022/06/26 04:00:30;;;;;;;;;37.33;34.33;26.10;58.00;;;;;;5076238;28;8750;-80
2022/06/26 04:02:56;;;;;;;;;41.33;37.00;26.10;57.90;;;;;;5076144;28;8892;-80
2022/06/26 04:05:22;;;;;;;;;38.67;35.67;26.10;58.00;;;;;;5076142;28;8873;-81
2022/06/26 04:07:48;;;;;;;;;36.00;34.00;26.10;58.00;;;;;;5076093;28;8794;-80
2022/06/26 04:10:14;;;;;;;;;36.33;34.33;26.10;58.10;;;;;;5076025;28;8778;-80
2022/06/26 04:12:40;;;;;;;;;39.00;35.00;26.00;58.10;;;;;;5075981;28;8880;-80
2022/06/26 04:15:07;;;;;;;;;33.67;32.67;26.10;57.90;;;;;;5076073;28;8805;-81
2022/06/26 04:17:32;;;;;;;;;41.67;37.33;26.10;57.90;;;;;;5075927;28;8896;-81
2022/06/26 04:19:58;;;;;;;;;34.33;32.67;26.10;57.90;;;;;;5075651;28;8940;-81
2022/06/26 04:22:24;;;;;;;;;36.67;34.33;26.10;57.70;;;;;;5075852;28;8866;-81
2022/06/26 04:24:50;;;;;;;;;34.67;33.33;26.10;57.60;;;;;;5083117;28;8803;-81
2022/06/26 04:27:16;;;;;;;;;33.00;31.67;26.10;57.60;;;;;;5078763;28;8866;-81
2022/06/26 04:29:41;;;;;;;;;40.00;36.33;26.10;57.60;;;;;;5075457;28;8789;-80
2022/06/26 04:32:08;;;;;;;;;35.33;33.67;26.20;58.60;;;;;;5075465;28;8766;-80
2022/06/26 04:34:33;;;;;;;;;42.00;37.33;26.20;57.60;;;;;;5075610;28;8832;-81
2022/06/26 04:36:59;;;;;;;;;36.67;34.33;26.10;57.60;;;;;;5074792;28;8869;-80
2022/06/26 04:39:25;;;;;;;;;38.67;35.00;26.20;57.70;;;;;;5082304;28;8796;-81
2022/06/26 04:41:51;;;;;;;;;46.33;40.33;26.20;57.70;;;;;;5089380;28;8760;-80
2022/06/26 04:44:18;;;;;;;;;50.00;43.33;26.20;57.40;;;;;;5095658;28;8752;-81
2022/06/26 04:46:46;;;;;;;;;48.00;41.33;26.10;57.90;;;;;;5095815;28;8763;-81
2022/06/26 04:49:13;;;;;;;;;39.33;36.33;26.20;58.00;;;;;;5095373;28;8870;-81
2022/06/26 04:51:39;;;;;;;;;44.33;39.33;26.10;58.20;;;;;;5095412;28;8778;-80
2022/06/26 04:54:06;;;;;;;;;41.67;37.33;26.10;58.70;;;;;;5095595;28;8866;-81
2022/06/26 04:56:32;;;;;;;;;27.67;27.67;26.20;58.70;;;;;;5095521;28;9445;-82
2022/06/26 04:58:58;;;;;;;;;38.67;35.67;26.20;58.60;;;;;;5095636;28;8752;-82
2022/06/26 05:01:25;;;;;;;;;37.00;34.00;26.30;58.70;;;;;;5095576;28;8786;-81
2022/06/26 05:03:51;;;;;;;;;33.67;32.67;26.30;58.50;;;;;;5095537;28;9473;-81
2022/06/26 05:06:17;;;;;;;;;33.00;32.00;26.40;58.40;;;;;;5095189;28;8768;-80
2022/06/26 05:08:42;;;;;;;;;35.00;33.33;26.50;58.30;;;;;;5095671;28;8889;-80
2022/06/26 05:11:09;;;;;;;;;35.00;33.67;26.50;58.30;;;;;;5095421;28;8848;-81
2022/06/26 05:13:35;;;;;;;;;32.00;30.33;26.60;57.90;;;;;;5087327;28;8902;-80
2022/06/26 05:16:01;;;;;;;;;31.67;30.67;26.70;57.70;;;;;;5080564;28;8798;-81
2022/06/26 05:18:27;;;;;;;;;36.00;33.33;26.80;57.40;;;;;;5074746;28;8814;-81
2022/06/26 05:20:53;;;;;;;;;30.00;30.00;26.90;57.40;;;;;;5074745;28;8769;-81
2022/06/26 05:23:19;;;;;;;;;34.00;32.33;27.00;57.40;;;;;;5074548;28;8793;-81
2022/06/26 05:25:44;;;;;;;;;35.00;32.67;26.90;57.50;;;;;;5074693;28;8774;-81
2022/06/26 05:28:11;;;;;;;;;34.00;32.33;26.90;57.80;;;;;;5074825;28;8876;-80
2022/06/26 05:30:37;;;;;;;;;32.33;31.33;26.90;57.80;;;;;;5074756;28;8799;-81
2022/06/26 05:33:03;;;;;;;;;29.33;29.33;26.90;57.70;;;;;;5074488;28;9513;-80
2022/06/26 05:35:30;;;;;;;;;28.67;28.67;27.00;57.50;;;;;;5074347;28;8833;-80
2022/06/26 05:37:56;;;;;;;;;30.67;29.00;27.10;57.40;;;;;;5074525;28;8793;-81
2022/06/26 05:40:22;;;;;;;;;29.00;29.00;27.10;56.90;;;;;;5074384;28;8819;-81
2022/06/26 05:42:48;;;;;;;;;29.33;29.33;27.00;57.50;;;;;;5074404;28;8785;-80
2022/06/26 05:45:13;;;;;;;;;29.67;29.67;27.20;57.30;;;;;;5074745;28;8770;-78
2022/06/26 05:47:39;;;;;;;;;28.33;28.33;27.20;56.80;;;;;;5073548;28;8755;-80
2022/06/26 05:50:06;;;;;;;;;29.33;29.33;27.10;56.40;;;;;;5074169;28;8766;-81
2022/06/26 05:52:32;;;;;;;;;30.33;30.00;27.10;56.80;;;;;;5074519;28;8761;-81
2022/06/26 05:54:58;;;;;;;;;30.00;30.00;27.20;56.30;;;;;;5074242;28;8806;-81
2022/06/26 05:57:25;;;;;;;;;26.00;26.00;27.20;56.10;;;;;;5074218;28;8801;-80
2022/06/26 05:59:51;;;;;;;;;24.67;24.67;27.30;55.80;;;;;;5074247;28;8774;-80
2022/06/26 06:02:16;;;;;;;;;25.33;25.33;27.40;55.80;;;;;;5074348;28;8762;-80
2022/06/26 06:04:42;;;;;;;;;28.00;28.00;27.30;55.00;;;;;;5074089;28;8829;-80
2022/06/26 06:07:08;;;;;;;;;23.67;23.67;27.40;55.30;;;;;;5074077;28;8956;-79
2022/06/26 06:09:34;;;;;;;;;25.33;25.33;27.50;55.50;;;;;;5074134;28;8789;-80
2022/06/26 06:12:00;;;;;;;;;28.33;28.33;27.60;55.50;;;;;;5074116;28;8782;-79
2022/06/26 06:14:26;;;;;;;;;28.00;27.67;27.60;55.50;;;;;;5074034;28;8750;-80
2022/06/26 06:16:52;;;;;;;;;23.67;23.67;27.50;55.70;;;;;;5074005;28;8770;-80
2022/06/26 06:19:18;;;;;;;;;30.33;30.33;27.60;55.40;;;;;;5073851;28;8818;-80
2022/06/26 06:21:44;;;;;;;;;26.00;25.33;27.60;55.40;;;;;;5073972;28;8831;-80
2022/06/26 06:24:10;;;;;;;;;27.33;27.33;27.60;55.70;;;;;;5074027;28;8776;-80
2022/06/26 06:26:37;;;;;;;;;27.33;27.33;27.60;55.00;;;;;;5074069;28;8777;-80
2022/06/26 06:29:02;;;;;;;;;23.67;23.67;27.50;55.70;;;;;;5073992;28;8766;-80
2022/06/26 06:31:30;;;;;;;;;27.67;27.67;27.70;55.50;;;;;;5074096;28;8952;-80
2022/06/26 06:33:55;;;;;;;;;30.67;30.33;27.70;55.80;;;;;;5074093;28;8876;-80
2022/06/26 06:36:21;;;;;;;;;33.67;31.33;27.90;55.90;;;;;;5073779;28;9423;-80
2022/06/26 06:38:47;;;;;;;;;27.67;27.67;28.00;55.00;;;;;;5074185;28;8809;-80
2022/06/26 06:41:13;;;;;;;;;27.67;27.67;28.10;54.60;;;;;;5073732;28;8777;-80
2022/06/26 06:43:40;;;;;;;;;27.67;27.67;28.00;55.10;;;;;;5057986;28;8802;-80
2022/06/26 06:46:06;;;;;;;;;29.67;29.67;28.00;55.60;;;;;;5083031;28;8780;-79
2022/06/26 06:48:31;;;;;;;;;28.67;28.67;28.10;55.30;;;;;;5094215;28;8827;-79
2022/06/26 06:50:57;;;;;;;;;30.33;30.33;28.00;55.10;;;;;;5086773;28;8942;-79
2022/06/26 06:53:23;;;;;;;;;29.33;29.33;28.00;54.90;;;;;;5077444;28;8785;-79
2022/06/26 06:55:49;;;;;;;;;26.33;26.33;28.20;54.50;;;;;;5073731;28;8821;-80
2022/06/26 06:58:15;;;;;;;;;31.33;30.67;28.40;54.00;;;;;;5073908;28;8789;-80
2022/06/26 07:00:40;;;;;;;;;30.00;30.00;28.40;53.70;;;;;;5088347;28;8784;-79
2022/06/26 07:03:06;;;;;;;;;24.00;24.00;28.50;53.80;;;;;;5080899;28;8778;-79
2022/06/26 07:05:33;;;;;;;;;28.67;28.67;28.40;53.40;;;;;;5087202;28;8794;-80
2022/06/26 07:08:00;;;;;;;;;26.33;26.33;28.30;53.00;;;;;;5086129;28;8845;-79
2022/06/26 07:10:26;;;;;;;;;27.00;27.00;28.40;53.20;;;;;;5080426;28;8768;-80
2022/06/26 07:12:55;;;;;;;;;28.67;28.67;28.50;53.00;;;;;;5085731;28;8782;-79
2022/06/26 07:15:21;;;;;;;;;30.33;30.33;28.60;53.50;;;;;;5083904;28;8806;-78
2022/06/26 07:17:47;;;;;;;;;25.33;25.33;28.40;54.60;;;;;;5084184;28;8810;-79
2022/06/26 07:20:13;;;;;;;;;26.00;26.00;28.40;53.60;;;;;;5083869;28;8793;-79
2022/06/26 07:22:39;;;;;;;;;23.00;23.00;28.50;54.00;;;;;;5086822;28;9685;-79
2022/06/26 07:25:06;;;;;;;;;28.00;28.00;28.60;53.30;;;;;;5082672;28;8788;-79
2022/06/26 07:27:31;;;;;;;;;27.67;27.67;28.70;53.00;;;;;;5087577;28;8790;-80
2022/06/26 07:29:57;;;;;;;;;25.33;25.33;28.70;52.30;;;;;;5083903;28;8865;-79
2022/06/26 07:32:23;;;;;;;;;27.67;27.67;28.60;52.50;;;;;;5085655;28;8788;-80
2022/06/26 07:34:49;;;;;;;;;24.00;24.00;28.60;52.10;;;;;;5086273;28;8910;-80
2022/06/26 07:37:15;;;;;;;;;22.67;22.67;28.70;52.00;;;;;;5087215;28;8854;-80
2022/06/26 07:39:41;;;;;;;;;28.67;28.67;28.70;52.10;;;;;;5078838;28;8778;-80
2022/06/26 07:42:07;;;;;;;;;28.33;28.33;28.70;52.20;;;;;;5085088;28;8820;-79
2022/06/26 07:44:32;;;;;;;;;25.33;25.33;28.70;52.20;;;;;;5083645;28;8758;-80
2022/06/26 07:46:59;;;;;;;;;24.67;24.67;28.90;52.20;;;;;;5085981;28;8791;-78
2022/06/26 07:49:24;;;;;;;;;26.33;26.33;28.90;51.50;;;;;;5083014;28;9396;-80
2022/06/26 07:51:51;;;;;;;;;20.33;20.33;28.80;51.50;;;;;;5088407;28;8778;-79
2022/06/26 07:54:17;;;;;;;;;22.00;22.00;28.70;52.00;;;;;;5082992;28;8830;-79
2022/06/26 07:56:43;;;;;;;;;22.00;22.00;28.80;51.80;;;;;;5085520;28;8788;-79
2022/06/26 07:59:09;;;;;;;;;20.67;20.67;28.80;51.20;;;;;;5080695;28;11480;-77
2022/06/26 08:01:35;;;;;;;;;19.00;19.00;29.10;50.60;;;;;;5085164;28;8798;-76
2022/06/26 08:04:02;;;;;;;;;24.67;24.67;29.10;50.00;;;;;;5082429;28;8863;-76
2022/06/26 08:06:29;;;;;;;;;24.00;24.00;29.20;50.80;;;;;;5091501;28;8782;-76
2022/06/26 08:08:56;;;;;;;;;23.00;23.00;29.20;50.50;;;;;;5095517;28;11577;-75
2022/06/26 08:11:22;;;;;;;;;21.67;21.67;29.20;50.60;;;;;;5094821;28;8760;-76
2022/06/26 08:13:48;;;;;;;;;24.00;24.00;29.40;50.20;;;;;;5095910;28;8779;-77
2022/06/26 08:16:14;;;;;;;;;23.67;23.67;29.40;50.80;;;;;;5096114;28;8807;-77
2022/06/26 08:18:41;;;;;;;;;27.00;27.00;29.40;50.70;;;;;;5095731;28;8800;-76
2022/06/26 08:23:51;;;;;;;;;22.00;22.00;29.50;50.50;;;;;;5086415;28;8770;-76
2022/06/26 08:26:17;;;;;;;;;21.67;21.67;29.40;50.00;;;;;;5065555;28;11553;-75
2022/06/26 08:28:43;;;;;;;;;23.33;23.33;29.40;50.50;;;;;;5086925;28;8784;-72
2022/06/26 08:31:09;;;;;;;;;19.67;19.67;29.40;50.60;;;;;;5095852;28;8883;-76
2022/06/26 08:33:35;;;;;;;;;20.33;20.33;29.40;49.70;;;;;;5087028;28;8797;-75
2022/06/26 08:36:01;;;;;;;;;16.33;16.33;29.50;49.10;;;;;;5082933;28;11505;-74
2022/06/26 08:38:27;;;;;;;;;18.00;18.00;29.50;48.40;;;;;;5075525;28;8816;-80
2022/06/26 08:40:53;;;;;;;;;17.00;17.00;29.60;48.20;;;;;;5075113;28;11572;-75
2022/06/26 08:43:22;;;;;;;;;18.00;18.00;29.80;47.50;;;;;;5092913;28;8818;-77
2022/06/26 08:45:53;;;;;;;;;17.67;16.67;29.80;47.10;;;;;;5088714;28;11439;-77
2022/06/26 08:48:20;;;;;;;;;16.00;16.00;30.00;46.90;;;;;;5079970;28;12133;-82
2022/06/26 08:50:47;;;;;;;;;17.00;17.00;30.10;46.90;;;;;;5079066;28;12120;-74
2022/06/26 08:53:15;;;;;;;;;18.00;18.00;30.10;46.30;;;;;;5091243;28;11485;-77
2022/06/26 08:55:42;;;;;;;;;15.00;15.00;30.10;46.10;;;;;;5094981;28;11471;-74
2022/06/26 08:58:09;;;;;;;;;13.25;13.25;30.20;46.00;;;;;;5095422;28;11442;-76
2022/06/26 09:00:35;;;;;;;;;9.75;9.75;30.30;45.40;;;;;;5088582;28;11451;-74
2022/06/26 09:03:01;;;;;;;;;13.33;13.33;30.30;44.90;;;;;;5083903;28;11486;-73
2022/06/26 09:05:27;;;;;;;;;14.00;14.00;30.50;45.30;;;;;;5081532;28;11593;-74
2022/06/26 09:07:54;;;;;;;;;15.00;15.00;30.50;44.70;;;;;;5084810;28;8812;-76
2022/06/26 09:10:22;;;;;;;;;15.33;15.33;30.60;44.20;;;;;;5079216;28;8802;-72
2022/06/26 09:12:57;;;;;;;;;13.25;13.25;30.60;43.90;;;;;;5088095;28;11445;-75
2022/06/26 09:15:25;;;;;;;;;12.33;12.33;30.80;44.10;;;;;;5094795;28;11449;-79
2022/06/26 09:17:59;;;;;;;;;16.00;16.00;30.80;44.10;;;;;;5094932;28;11412;-81
2022/06/26 09:20:25;;;;;;;;;10.25;10.25;30.80;43.60;;;;;;5094820;28;12131;-76
2022/06/26 09:22:56;;;;;;;;;8.50;8.50;30.80;42.50;;;;;;5094496;28;11539;-78
2022/06/26 09:25:40;;;;;;;;;12.00;12.00;30.90;43.10;;;;;;5094620;28;11375;-77
2022/06/26 09:28:11;;;;;;;;;9.00;9.00;31.10;42.50;;;;;;5076759;28;11466;-78
2022/06/26 09:30:50;;;;;;;;;14.00;14.00;31.20;41.70;;;;;;5085449;28;11399;-74
2022/06/26 09:33:24;;;;;;;;;13.75;13.75;31.30;41.30;;;;;;5074289;28;11425;-74
2022/06/26 09:35:50;;;;;;;;;10.00;10.00;31.30;40.30;;;;;;5074220;28;11485;-77
2022/06/26 09:38:25;;;;;;;;;15.50;12.75;31.20;40.00;;;;;;5074691;28;8786;-70
2022/06/26 09:40:55;;;;;;;;;10.75;10.75;30.80;40.80;;;;;;5074157;28;11423;-78
2022/06/26 09:43:42;;;;;;;;;24.00;19.75;30.60;41.50;;;;;;5081171;28;11531;-79
2022/06/26 09:46:16;;;;;;;;;12.00;11.50;30.90;41.30;;;;;;5075695;28;11581;-74
2022/06/26 09:48:42;;;;;;;;;12.25;12.25;30.70;41.00;;;;;;5091176;28;11492;-72
2022/06/26 09:51:09;;;;;;;;;11.00;11.00;30.80;41.50;;;;;;5089112;28;11436;-75
2022/06/26 09:53:37;;;;;;;;;11.00;9.00;31.20;41.50;;;;;;5086924;28;11480;-76
2022/06/26 09:56:05;;;;;;;;;13.00;13.00;30.80;41.50;;;;;;5077479;28;11445;-75
2022/06/26 09:58:31;;;;;;;;;9.00;9.00;30.50;41.10;;;;;;5081279;28;11490;-76
2022/06/26 10:06:31;;;;;;;;;11.75;10.00;31.30;40.10;;;;;;5094102;28;11412;-77
2022/06/26 10:08:59;;;;;;;;;10.50;10.50;31.40;39.50;;;;;;5094558;28;11557;-76
2022/06/26 10:11:28;;;;;;;;;9.50;9.50;31.60;39.60;;;;;;5090644;28;11461;-78
2022/06/26 10:13:59;;;;;;;;;9.50;9.50;31.70;40.20;;;;;;5083798;28;11417;-76
2022/06/26 10:16:46;;;;;;;;;9.50;9.50;32.00;40.90;;;;;;5076250;28;11581;-77
2022/06/26 10:19:34;;;;;;;;;10.00;10.00;32.40;38.20;;;;;;5093892;28;11507;-73
2022/06/26 10:22:00;;;;;;;;;12.25;12.25;32.80;38.20;;;;;;5087739;28;12241;-70
2022/06/26 10:24:26;;;;;;;;;8.50;8.00;32.90;38.30;;;;;;5073885;28;11425;-72
2022/06/26 10:26:55;;;;;;;;;9.75;9.00;32.80;37.00;;;;;;5077367;28;11505;-71
2022/06/26 10:29:40;;;;;;;;;8.00;8.00;32.80;36.40;;;;;;5094175;28;12099;-70
2022/06/26 10:32:09;;;;;;;;;7.00;7.00;32.90;36.10;;;;;;5093984;28;11411;-71
2022/06/26 10:34:36;;;;;;;;;10.00;9.75;32.50;35.80;;;;;;5094863;28;11400;-71
2022/06/26 10:37:14;;;;;;;;;10.00;10.00;32.40;36.30;;;;;;5097966;28;12079;-70
2022/06/26 10:39:43;;;;;;;;;7.50;7.50;32.60;35.80;;;;;;5098500;28;11386;-72
2022/06/26 10:45:14;;;;;;;;;8.25;8.25;32.60;35.70;;;;;;5097957;28;12244;-72
2022/06/26 10:47:50;;;;;;;;;5.50;5.50;31.80;37.20;;;;;;5098003;28;11515;-71
2022/06/26 10:50:41;;;;;;;;;8.00;8.00;32.20;36.70;;;;;;5097732;28;11401;-71
2022/06/26 10:53:21;;;;;;;;;6.00;6.00;32.30;36.50;;;;;;5079761;28;12037;-72
2022/06/26 10:56:02;;;;;;;;;6.50;6.50;32.60;34.30;;;;;;5097803;28;11528;-72
2022/06/26 10:58:32;;;;;;;;;10.00;10.00;32.50;35.50;;;;;;5095788;28;11385;-72
2022/06/26 11:01:02;;;;;;;;;9.75;9.00;32.40;36.00;;;;;;5097734;28;11437;-71
2022/06/26 11:03:30;;;;;;;;;9.00;9.00;32.80;35.50;;;;;;5097588;28;11388;-71
2022/06/26 11:05:55;;;;;;;;;9.00;9.00;33.10;36.00;;;;;;5097276;28;11494;-71
2022/06/26 11:08:32;;;;;;;;;8.25;8.00;33.50;34.70;;;;;;5097473;28;11435;-71
2022/06/26 11:11:06;;;;;;;;;7.00;7.00;33.80;33.10;;;;;;5097761;28;8740;-71
2022/06/26 11:13:33;;;;;;;;;5.75;5.75;33.80;32.90;;;;;;5097427;28;11392;-71
2022/06/26 11:15:59;;;;;;;;;6.00;6.00;33.90;33.10;;;;;;5097303;28;11397;-71
2022/06/26 11:18:24;;;;;;;;;5.00;5.00;33.80;33.00;;;;;;5097020;28;11377;-71
2022/06/26 11:20:54;;;;;;;;;4.75;4.75;33.70;34.10;;;;;;5097066;28;11484;-71
2022/06/26 11:23:28;;;;;;;;;6.75;6.75;33.80;32.40;;;;;;5097200;28;9531;-71
2022/06/26 11:26:11;;;;;;;;;5.25;5.25;34.20;32.40;;;;;;5097267;28;12075;-71
2022/06/26 11:28:41;;;;;;;;;5.75;5.75;33.90;31.20;;;;;;5097241;28;11382;-72
2022/06/26 11:31:13;;;;;;;;;2.25;2.25;34.20;31.50;;;;;;5096999;28;11380;-72
2022/06/26 11:33:40;;;;;;;;;3.25;3.25;34.30;29.70;;;;;;5096904;28;11531;-71
2022/06/26 11:36:08;;;;;;;;;3.75;3.75;34.10;29.10;;;;;;5096806;28;11441;-72
2022/06/26 11:38:35;;;;;;;;;4.75;4.75;34.20;29.20;;;;;;5097108;28;11437;-71
2022/06/26 11:41:04;;;;;;;;;2.50;2.50;34.60;29.60;;;;;;5097040;28;11394;-71
2022/06/26 11:43:30;;;;;;;;;3.00;3.00;34.70;30.60;;;;;;5078720;28;11422;-72
2022/06/26 11:45:57;;;;;;;;;3.75;3.75;34.30;29.50;;;;;;5095708;28;12180;-72
2022/06/26 11:48:23;;;;;;;;;5.00;5.00;34.30;29.40;;;;;;5096920;28;11423;-72
2022/06/26 11:50:56;;;;;;;;;6.75;5.50;34.50;32.10;;;;;;5096464;28;11411;-72
2022/06/26 11:53:25;;;;;;;;;3.25;3.25;34.60;31.60;;;;;;5096761;28;11378;-72
2022/06/26 11:56:03;;;;;;;;;3.00;3.00;34.70;31.30;;;;;;5096395;28;11426;-72
2022/06/26 11:58:32;;;;;;;;;3.25;3.25;34.60;30.00;;;;;;5096460;28;11583;-72
2022/06/26 12:01:10;;;;;;;;;5.25;5.25;35.20;29.70;;;;;;5096411;28;11394;-73
2022/06/26 12:03:49;;;;;;;;;4.50;4.50;35.40;30.00;;;;;;5096352;28;11581;-72
2022/06/26 12:06:34;;;;;;;;;0.00;0.00;35.40;29.30;;;;;;5096359;28;11409;-72
2022/06/26 12:09:21;;;;;;;;;5.00;5.00;35.00;29.90;;;;;;5096856;28;11413;-72
2022/06/26 12:11:53;;;;;;;;;4.25;4.25;34.90;31.20;;;;;;5095592;28;11392;-72
2022/06/26 12:14:20;;;;;;;;;3.25;3.25;35.10;31.60;;;;;;5095955;28;11392;-72
2022/06/26 12:16:48;;;;;;;;;2.75;2.75;35.40;30.70;;;;;;5095836;28;11422;-71
2022/06/26 12:19:14;;;;;;;;;3.75;3.75;35.40;31.50;;;;;;5095880;28;10895;-71
2022/06/26 12:21:43;;;;;;;;;2.00;2.00;35.40;29.70;;;;;;5096209;28;11372;-72
2022/06/26 12:24:11;;;;;;;;;2.75;2.75;34.80;28.80;;;;;;5095892;28;11413;-72
2022/06/26 12:26:38;;;;;;;;;4.75;4.75;34.60;30.30;;;;;;5095913;28;12000;-72
2022/06/26 12:29:12;;;;;;;;;3.75;3.75;34.80;30.20;;;;;;5095818;28;11404;-72
2022/06/26 12:31:39;;;;;;;;;4.75;4.75;34.60;30.10;;;;;;5095943;28;10899;-71
2022/06/26 12:34:05;;;;;;;;;3.25;3.25;35.20;29.60;;;;;;5095750;28;11420;-72
2022/06/26 12:36:33;;;;;;;;;3.75;3.75;35.40;29.40;;;;;;5095653;28;11509;-71
2022/06/26 12:38:59;;;;;;;;;4.00;4.00;35.70;29.10;;;;;;5096182;28;11434;-72
2022/06/26 12:41:25;;;;;;;;;4.00;4.00;35.40;29.90;;;;;;5095583;28;11376;-72
2022/06/26 12:43:57;;;;;;;;;4.00;4.00;35.10;29.40;;;;;;5095811;28;11501;-72
2022/06/26 12:46:23;;;;;;;;;3.75;3.75;35.20;29.10;;;;;;5095754;28;8787;-72
2022/06/26 12:48:50;;;;;;;;;3.75;3.75;35.30;29.80;;;;;;5095775;28;11378;-71
2022/06/26 12:51:16;;;;;;;;;5.00;5.00;35.10;30.90;;;;;;5095661;28;11503;-73
2022/06/26 12:53:43;;;;;;;;;3.75;3.75;34.90;30.70;;;;;;5095304;28;11369;-71
2022/06/26 12:56:11;;;;;;;;;3.75;3.75;34.50;31.90;;;;;;5095281;28;11433;-71